sensor_id;sensor_type;location;lat;lon;timestamp;pressure;altitude;pressure_sealevel;temperature;humidity
72024;BME280;59889;50.700;5.440;2023-04-25T00:01:06;99515.73;;;22.14;32.64
72024;BME280;59889;50.700;5.440;2023-04-25T00:03:31;99516.36;;;22.30;32.72
72024;BME280;59889;50.700;5.440;2023-04-25T00:05:56;99517.63;;;22.32;32.71
72024;BME280;59889;50.700;5.440;2023-04-25T00:08:21;99516.16;;;22.21;32.54
72024;BME280;59889;50.700;5.440;2023-04-25T00:10:46;99517.78;;;21.84;32.72
72024;BME280;59889;50.700;5.440;2023-04-25T00:13:11;99521.30;;;22.34;32.72
72024;BME280;59889;50.700;5.440;2023-04-25T00:15:36;99519.36;;;22.13;32.65
72024;BME280;59889;50.700;5.440;2023-04-25T00:18:01;99517.75;;;22.12;32.69
72024;BME280;59889;50.700;5.440;2023-04-25T00:20:26;99517.02;;;22.39;32.65
72024;BME280;59889;50.700;5.440;2023-04-25T00:22:51;99518.27;;;22.14;32.65
72024;BME280;59889;50.700;5.440;2023-04-25T00:25:16;99520.08;;;22.10;32.74
72024;BME280;59889;50.700;5.440;2023-04-25T00:27:41;99519.56;;;22.11;32.72
72024;BME280;59889;50.700;5.440;2023-04-25T00:30:08;99520.70;;;22.03;32.82
72024;BME280;59889;50.700;5.440;2023-04-25T00:32:31;99520.82;;;22.10;32.70
72024;BME280;59889;50.700;5.440;2023-04-25T00:34:56;99519.41;;;22.08;32.75
72024;BME280;59889;50.700;5.440;2023-04-25T00:37:22;99520.05;;;22.13;32.68
72024;BME280;59889;50.700;5.440;2023-04-25T00:39:47;99523.40;;;22.17;32.65
72024;BME280;59889;50.700;5.440;2023-04-25T00:42:12;99526.37;;;22.20;32.63
72024;BME280;59889;50.700;5.440;2023-04-25T00:44:37;99523.20;;;21.99;32.84
72024;BME280;59889;50.700;5.440;2023-04-25T00:47:02;99521.38;;;22.29;32.78
72024;BME280;59889;50.700;5.440;2023-04-25T00:49:27;99519.38;;;22.40;32.62
72024;BME280;59889;50.700;5.440;2023-04-25T00:51:52;99519.08;;;22.36;32.69
72024;BME280;59889;50.700;5.440;2023-04-25T00:54:17;99521.70;;;22.06;32.78
72024;BME280;59889;50.700;5.440;2023-04-25T00:56:42;99521.68;;;22.14;32.71
72024;BME280;59889;50.700;5.440;2023-04-25T00:59:08;99521.23;;;22.15;32.68
72024;BME280;59889;50.700;5.440;2023-04-25T01:01:32;99522.43;;;22.38;32.70
72024;BME280;59889;50.700;5.440;2023-04-25T01:03:58;99521.86;;;22.11;32.72
72024;BME280;59889;50.700;5.440;2023-04-25T01:06:22;99521.97;;;21.90;32.70
72024;BME280;59889;50.700;5.440;2023-04-25T01:08:47;99520.47;;;21.92;32.69
72024;BME280;59889;50.700;5.440;2023-04-25T01:11:12;99520.67;;;22.16;32.65
72024;BME280;59889;50.700;5.440;2023-04-25T01:13:37;99520.87;;;22.10;32.78
72024;BME280;59889;50.700;5.440;2023-04-25T01:16:04;99519.34;;;22.37;32.74
72024;BME280;59889;50.700;5.440;2023-04-25T01:18:27;99522.80;;;22.31;32.76
72024;BME280;59889;50.700;5.440;2023-04-25T01:20:53;99523.70;;;22.16;32.65
72024;BME280;59889;50.700;5.440;2023-04-25T01:23:18;99528.02;;;22.07;32.81
72024;BME280;59889;50.700;5.440;2023-04-25T01:25:42;99523.62;;;22.07;32.78
72024;BME280;59889;50.700;5.440;2023-04-25T01:28:07;99521.06;;;22.08;32.76
72024;BME280;59889;50.700;5.440;2023-04-25T01:30:33;99521.21;;;22.01;32.82
72024;BME280;59889;50.700;5.440;2023-04-25T01:32:59;99523.75;;;22.13;32.69
72024;BME280;59889;50.700;5.440;2023-04-25T01:35:23;99525.71;;;22.39;32.72
72024;BME280;59889;50.700;5.440;2023-04-25T01:37:48;99527.41;;;22.16;32.69
72024;BME280;59889;50.700;5.440;2023-04-25T01:40:13;99527.89;;;22.09;32.81
72024;BME280;59889;50.700;5.440;2023-04-25T01:42:41;99528.81;;;22.28;32.81
72024;BME280;59889;50.700;5.440;2023-04-25T01:45:04;99530.65;;;22.16;32.75
72024;BME280;59889;50.700;5.440;2023-04-25T01:47:28;99534.55;;;22.39;32.70
72024;BME280;59889;50.700;5.440;2023-04-25T01:49:53;99538.65;;;22.17;32.70
72024;BME280;59889;50.700;5.440;2023-04-25T01:52:18;99539.28;;;22.11;32.75
72024;BME280;59889;50.700;5.440;2023-04-25T01:54:43;99540.34;;;22.11;32.72
72024;BME280;59889;50.700;5.440;2023-04-25T01:57:08;99542.31;;;22.45;32.66
72024;BME280;59889;50.700;5.440;2023-04-25T01:59:33;99541.60;;;22.13;32.76
72024;BME280;59889;50.700;5.440;2023-04-25T02:01:58;99541.37;;;21.94;32.67
72024;BME280;59889;50.700;5.440;2023-04-25T02:04:23;99545.68;;;22.20;32.64
72024;BME280;59889;50.700;5.440;2023-04-25T02:06:48;99545.93;;;22.01;32.88
72024;BME280;59889;50.700;5.440;2023-04-25T02:09:13;99549.29;;;22.47;32.61
72024;BME280;59889;50.700;5.440;2023-04-25T02:11:38;99550.25;;;22.19;32.69
72024;BME280;59889;50.700;5.440;2023-04-25T02:14:03;99548.86;;;22.16;32.69
72024;BME280;59889;50.700;5.440;2023-04-25T02:16:28;99550.17;;;21.93;32.73
72024;BME280;59889;50.700;5.440;2023-04-25T02:18:53;99547.19;;;22.17;32.72
72024;BME280;59889;50.700;5.440;2023-04-25T02:21:19;99549.18;;;22.34;32.79
72024;BME280;59889;50.700;5.440;2023-04-25T02:23:44;99550.48;;;22.14;32.71
72024;BME280;59889;50.700;5.440;2023-04-25T02:26:09;99550.29;;;22.09;32.79
72024;BME280;59889;50.700;5.440;2023-04-25T02:28:34;99549.80;;;22.34;32.76
72024;BME280;59889;50.700;5.440;2023-04-25T02:30:59;99550.31;;;22.10;32.79
72024;BME280;59889;50.700;5.440;2023-04-25T02:33:24;99550.73;;;22.11;32.76
72024;BME280;59889;50.700;5.440;2023-04-25T02:35:49;99548.16;;;22.35;32.75
72024;BME280;59889;50.700;5.440;2023-04-25T02:38:14;99547.83;;;22.02;32.89
72024;BME280;59889;50.700;5.440;2023-04-25T02:40:39;99548.74;;;22.09;32.80
72024;BME280;59889;50.700;5.440;2023-04-25T02:43:04;99550.32;;;22.19;32.93
72024;BME280;59889;50.700;5.440;2023-04-25T02:45:29;99552.67;;;21.61;33.07
72024;BME280;59889;50.700;5.440;2023-04-25T02:47:54;99552.51;;;21.94;33.00
72024;BME280;59889;50.700;5.440;2023-04-25T02:50:19;99550.70;;;22.05;32.85
72024;BME280;59889;50.700;5.440;2023-04-25T02:52:44;99550.14;;;22.07;32.86
72024;BME280;59889;50.700;5.440;2023-04-25T02:55:09;99553.90;;;22.13;32.76
72024;BME280;59889;50.700;5.440;2023-04-25T02:57:34;99556.50;;;21.72;32.95
72024;BME280;59889;50.700;5.440;2023-04-25T02:59:59;99556.63;;;22.10;32.79
72024;BME280;59889;50.700;5.440;2023-04-25T03:02:24;99555.37;;;21.97;33.00
72024;BME280;59889;50.700;5.440;2023-04-25T03:04:49;99554.36;;;22.09;32.82
72024;BME280;59889;50.700;5.440;2023-04-25T03:07:14;99555.02;;;22.08;32.84
72024;BME280;59889;50.700;5.440;2023-04-25T03:09:40;99556.70;;;21.83;33.10
72024;BME280;59889;50.700;5.440;2023-04-25T03:12:05;99559.93;;;22.24;32.93
72024;BME280;59889;50.700;5.440;2023-04-25T03:14:30;99560.27;;;22.08;32.91
72024;BME280;59889;50.700;5.440;2023-04-25T03:16:55;99559.93;;;21.91;33.03
72024;BME280;59889;50.700;5.440;2023-04-25T03:19:20;99559.10;;;22.01;33.11
72024;BME280;59889;50.700;5.440;2023-04-25T03:21:45;99559.86;;;22.30;32.84
72024;BME280;59889;50.700;5.440;2023-04-25T03:24:10;99559.76;;;21.86;33.07
72024;BME280;59889;50.700;5.440;2023-04-25T03:26:35;99562.74;;;22.13;32.79
72024;BME280;59889;50.700;5.440;2023-04-25T03:29:00;99562.42;;;22.34;32.80
72024;BME280;59889;50.700;5.440;2023-04-25T03:31:25;99559.28;;;22.25;32.95
72024;BME280;59889;50.700;5.440;2023-04-25T03:33:50;99560.13;;;22.22;33.00
72024;BME280;59889;50.700;5.440;2023-04-25T03:36:15;99558.49;;;21.96;33.03
72024;BME280;59889;50.700;5.440;2023-04-25T03:38:40;99561.28;;;22.13;33.08
72024;BME280;59889;50.700;5.440;2023-04-25T03:41:05;99565.18;;;21.99;33.21
72024;BME280;59889;50.700;5.440;2023-04-25T03:43:31;99567.22;;;21.69;33.52
72024;BME280;59889;50.700;5.440;2023-04-25T03:45:55;99570.00;;;21.77;33.41
72024;BME280;59889;50.700;5.440;2023-04-25T03:48:20;99570.22;;;21.59;33.48
72024;BME280;59889;50.700;5.440;2023-04-25T03:50:45;99569.68;;;21.49;33.37
72024;BME280;59889;50.700;5.440;2023-04-25T03:53:10;99573.11;;;21.70;33.76
72024;BME280;59889;50.700;5.440;2023-04-25T03:55:35;99577.19;;;21.87;34.04
72024;BME280;59889;50.700;5.440;2023-04-25T03:58:01;99577.41;;;21.50;34.25
72024;BME280;59889;50.700;5.440;2023-04-25T04:00:26;99580.40;;;21.37;34.12
72024;BME280;59889;50.700;5.440;2023-04-25T04:02:51;99580.11;;;21.51;34.22
72024;BME280;59889;50.700;5.440;2023-04-25T04:05:17;99581.70;;;21.49;34.19
72024;BME280;59889;50.700;5.440;2023-04-25T04:07:41;99583.08;;;21.35;34.40
72024;BME280;59889;50.700;5.440;2023-04-25T04:10:07;99583.65;;;21.66;34.25
72024;BME280;59889;50.700;5.440;2023-04-25T04:12:31;99587.69;;;21.35;34.31
72024;BME280;59889;50.700;5.440;2023-04-25T04:14:57;99592.67;;;21.47;34.38
72024;BME280;59889;50.700;5.440;2023-04-25T04:17:22;99593.40;;;21.62;34.52
72024;BME280;59889;50.700;5.440;2023-04-25T04:19:47;99592.08;;;21.33;34.62
72024;BME280;59889;50.700;5.440;2023-04-25T04:22:12;99597.71;;;21.67;34.56
72024;BME280;59889;50.700;5.440;2023-04-25T04:24:37;99597.76;;;21.61;34.68
72024;BME280;59889;50.700;5.440;2023-04-25T04:27:02;99602.88;;;21.53;34.74
72024;BME280;59889;50.700;5.440;2023-04-25T04:29:27;99604.45;;;21.59;34.71
72024;BME280;59889;50.700;5.440;2023-04-25T04:31:52;99603.33;;;21.29;34.73
72024;BME280;59889;50.700;5.440;2023-04-25T04:34:17;99603.05;;;21.54;34.75
72024;BME280;59889;50.700;5.440;2023-04-25T04:36:42;99605.41;;;21.54;34.72
72024;BME280;59889;50.700;5.440;2023-04-25T04:39:07;99607.77;;;21.38;34.62
72024;BME280;59889;50.700;5.440;2023-04-25T04:41:33;99607.38;;;21.54;34.70
72024;BME280;59889;50.700;5.440;2023-04-25T04:43:58;99612.40;;;21.65;34.56
72024;BME280;59889;50.700;5.440;2023-04-25T04:46:23;99615.01;;;21.59;34.63
72024;BME280;59889;50.700;5.440;2023-04-25T04:48:48;99614.44;;;21.51;34.70
72024;BME280;59889;50.700;5.440;2023-04-25T04:51:13;99617.50;;;21.50;34.71
72024;BME280;59889;50.700;5.440;2023-04-25T04:53:38;99620.07;;;21.55;34.64
72024;BME280;59889;50.700;5.440;2023-04-25T04:56:04;99622.96;;;21.29;34.65
72024;BME280;59889;50.700;5.440;2023-04-25T04:58:28;99627.60;;;21.64;34.55
72024;BME280;59889;50.700;5.440;2023-04-25T05:00:54;99631.06;;;21.62;34.52
72024;BME280;59889;50.700;5.440;2023-04-25T05:03:19;99633.77;;;21.50;34.66
72024;BME280;59889;50.700;5.440;2023-04-25T05:05:44;99638.23;;;21.62;34.52
72024;BME280;59889;50.700;5.440;2023-04-25T05:08:09;99641.32;;;21.50;34.67
72024;BME280;59889;50.700;5.440;2023-04-25T05:10:34;99646.01;;;21.47;34.73
72024;BME280;59889;50.700;5.440;2023-04-25T05:12:59;99647.45;;;21.23;34.73
72024;BME280;59889;50.700;5.440;2023-04-25T05:15:24;99654.47;;;21.36;34.66
72024;BME280;59889;50.700;5.440;2023-04-25T05:17:49;99655.56;;;21.61;34.65
72024;BME280;59889;50.700;5.440;2023-04-25T05:20:14;99658.02;;;21.62;34.60
72024;BME280;59889;50.700;5.440;2023-04-25T05:22:40;99662.41;;;21.58;34.68
72024;BME280;59889;50.700;5.440;2023-04-25T05:25:06;99667.82;;;21.61;34.62
72024;BME280;59889;50.700;5.440;2023-04-25T05:27:30;99674.00;;;21.35;34.62
72024;BME280;59889;50.700;5.440;2023-04-25T05:29:55;99672.99;;;21.74;34.70
72024;BME280;59889;50.700;5.440;2023-04-25T05:32:20;99673.72;;;21.28;34.67
72024;BME280;59889;50.700;5.440;2023-04-25T05:34:45;99677.79;;;21.19;34.77
72024;BME280;59889;50.700;5.440;2023-04-25T05:37:11;99683.93;;;21.58;34.59
72024;BME280;59889;50.700;5.440;2023-04-25T05:39:36;99684.98;;;21.52;34.63
72024;BME280;59889;50.700;5.440;2023-04-25T05:42:01;99691.07;;;21.56;34.57
72024;BME280;59889;50.700;5.440;2023-04-25T05:44:26;99694.80;;;21.59;34.53
72024;BME280;59889;50.700;5.440;2023-04-25T05:46:51;99696.78;;;21.46;34.68
72024;BME280;59889;50.700;5.440;2023-04-25T05:49:16;99702.01;;;21.22;34.67
72024;BME280;59889;50.700;5.440;2023-04-25T05:51:41;99705.31;;;21.54;34.58
72024;BME280;59889;50.700;5.440;2023-04-25T05:54:06;99706.99;;;21.43;34.69
72024;BME280;59889;50.700;5.440;2023-04-25T05:56:31;99706.75;;;21.64;34.72
72024;BME280;59889;50.700;5.440;2023-04-25T05:58:56;99705.65;;;21.51;34.60
72024;BME280;59889;50.700;5.440;2023-04-25T06:01:22;99708.04;;;21.40;34.70
72024;BME280;59889;50.700;5.440;2023-04-25T06:03:46;99710.16;;;21.48;34.57
72024;BME280;59889;50.700;5.440;2023-04-25T06:06:12;99711.91;;;21.43;34.63
72024;BME280;59889;50.700;5.440;2023-04-25T06:08:37;99710.92;;;21.50;34.55
72024;BME280;59889;50.700;5.440;2023-04-25T06:11:02;99709.99;;;21.52;34.49
72024;BME280;59889;50.700;5.440;2023-04-25T06:13:27;99706.12;;;21.43;34.60
72024;BME280;59889;50.700;5.440;2023-04-25T06:15:53;99708.71;;;21.45;34.57
72024;BME280;59889;50.700;5.440;2023-04-25T06:18:18;99713.22;;;21.50;34.50
72024;BME280;59889;50.700;5.440;2023-04-25T06:20:43;99718.28;;;21.51;34.46
72024;BME280;59889;50.700;5.440;2023-04-25T06:23:08;99724.96;;;21.37;34.60
72024;BME280;59889;50.700;5.440;2023-04-25T06:25:33;99728.35;;;21.42;34.55
72024;BME280;59889;50.700;5.440;2023-04-25T06:27:58;99730.19;;;21.33;34.66
72024;BME280;59889;50.700;5.440;2023-04-25T06:30:23;99732.75;;;21.31;34.66
72024;BME280;59889;50.700;5.440;2023-04-25T06:32:48;99733.10;;;21.39;34.57
72024;BME280;59889;50.700;5.440;2023-04-25T06:35:13;99736.56;;;21.41;34.54
72024;BME280;59889;50.700;5.440;2023-04-25T06:37:38;99737.91;;;21.58;34.61
72024;BME280;59889;50.700;5.440;2023-04-25T06:40:05;99738.45;;;21.26;34.68
72024;BME280;59889;50.700;5.440;2023-04-25T06:42:29;99742.20;;;21.40;34.52
72024;BME280;59889;50.700;5.440;2023-04-25T06:44:54;99742.80;;;21.42;34.51
72024;BME280;59889;50.700;5.440;2023-04-25T06:47:19;99742.17;;;21.71;34.41
72024;BME280;59889;50.700;5.440;2023-04-25T06:49:44;99747.63;;;21.47;34.40
72024;BME280;59889;50.700;5.440;2023-04-25T06:52:09;99754.72;;;21.44;34.45
72024;BME280;59889;50.700;5.440;2023-04-25T06:54:34;99759.20;;;21.47;34.39
72024;BME280;59889;50.700;5.440;2023-04-25T06:56:59;99761.65;;;21.41;34.48
72024;BME280;59889;50.700;5.440;2023-04-25T06:59:24;99762.58;;;21.32;34.57
72024;BME280;59889;50.700;5.440;2023-04-25T07:01:50;99765.10;;;21.42;34.40
72024;BME280;59889;50.700;5.440;2023-04-25T07:04:15;99765.62;;;21.43;34.41
72024;BME280;59889;50.700;5.440;2023-04-25T07:06:40;99766.03;;;21.13;34.47
72024;BME280;59889;50.700;5.440;2023-04-25T07:09:05;99771.74;;;21.41;34.41
72024;BME280;59889;50.700;5.440;2023-04-25T07:11:30;99772.01;;;21.41;34.39
72024;BME280;59889;50.700;5.440;2023-04-25T07:13:55;99773.66;;;21.46;34.31
72024;BME280;59889;50.700;5.440;2023-04-25T07:16:20;99779.63;;;21.31;34.46
72024;BME280;59889;50.700;5.440;2023-04-25T07:18:45;99787.31;;;21.59;34.42
72024;BME280;59889;50.700;5.440;2023-04-25T07:21:10;99786.76;;;21.38;34.37
72024;BME280;59889;50.700;5.440;2023-04-25T07:23:35;99785.50;;;21.43;34.31
72024;BME280;59889;50.700;5.440;2023-04-25T07:26:00;99783.12;;;21.37;34.34
72024;BME280;59889;50.700;5.440;2023-04-25T07:28:25;99784.23;;;21.33;34.39
72024;BME280;59889;50.700;5.440;2023-04-25T07:30:50;99787.24;;;21.29;34.43
72024;BME280;59889;50.700;5.440;2023-04-25T07:33:15;99792.16;;;21.40;34.30
72024;BME280;59889;50.700;5.440;2023-04-25T07:35:40;99796.11;;;21.36;34.34
72024;BME280;59889;50.700;5.440;2023-04-25T07:38:06;99797.40;;;21.34;34.35
72024;BME280;59889;50.700;5.440;2023-04-25T07:40:31;99801.19;;;21.63;34.28
72024;BME280;59889;50.700;5.440;2023-04-25T07:42:56;99802.11;;;21.45;34.21
72024;BME280;59889;50.700;5.440;2023-04-25T07:45:21;99802.51;;;21.34;34.33
72024;BME280;59889;50.700;5.440;2023-04-25T07:47:46;99808.80;;;21.37;34.31
72024;BME280;59889;50.700;5.440;2023-04-25T07:50:11;99812.67;;;21.45;34.20
72024;BME280;59889;50.700;5.440;2023-04-25T07:52:36;99812.20;;;21.32;34.31
72024;BME280;59889;50.700;5.440;2023-04-25T07:55:01;99819.47;;;21.39;34.22
72024;BME280;59889;50.700;5.440;2023-04-25T07:57:26;99823.65;;;21.20;34.45
72024;BME280;59889;50.700;5.440;2023-04-25T07:59:51;99824.33;;;21.28;34.34
72024;BME280;59889;50.700;5.440;2023-04-25T08:02:16;99824.89;;;21.41;34.18
72024;BME280;59889;50.700;5.440;2023-04-25T08:04:41;99826.74;;;21.33;34.27
72024;BME280;59889;50.700;5.440;2023-04-25T08:07:06;99829.26;;;21.36;34.21
72024;BME280;59889;50.700;5.440;2023-04-25T08:09:31;99831.42;;;21.33;34.24
72024;BME280;59889;50.700;5.440;2023-04-25T08:11:56;99834.73;;;21.33;34.24
72024;BME280;59889;50.700;5.440;2023-04-25T08:14:22;99837.96;;;21.33;34.23
72024;BME280;59889;50.700;5.440;2023-04-25T08:16:47;99843.38;;;21.33;34.22
72024;BME280;59889;50.700;5.440;2023-04-25T08:19:12;99846.59;;;21.35;34.16
72024;BME280;59889;50.700;5.440;2023-04-25T08:21:37;99851.44;;;21.27;34.24
72024;BME280;59889;50.700;5.440;2023-04-25T08:24:02;99853.60;;;21.36;34.14
72024;BME280;59889;50.700;5.440;2023-04-25T08:26:28;99855.07;;;21.63;34.09
72024;BME280;59889;50.700;5.440;2023-04-25T08:28:52;99855.38;;;21.44;34.02
72024;BME280;59889;50.700;5.440;2023-04-25T08:31:17;99858.58;;;21.35;34.13
72024;BME280;59889;50.700;5.440;2023-04-25T08:33:42;99859.31;;;21.36;34.11
72024;BME280;59889;50.700;5.440;2023-04-25T08:36:07;99861.38;;;21.41;34.06
72024;BME280;59889;50.700;5.440;2023-04-25T08:38:32;99864.25;;;21.46;33.96
72024;BME280;59889;50.700;5.440;2023-04-25T08:40:59;99863.28;;;21.39;34.00
72024;BME280;59889;50.700;5.440;2023-04-25T08:43:23;99867.11;;;21.40;34.00
72024;BME280;59889;50.700;5.440;2023-04-25T08:45:47;99872.85;;;21.29;34.12
72024;BME280;59889;50.700;5.440;2023-04-25T08:48:14;99876.42;;;21.42;33.96
72024;BME280;59889;50.700;5.440;2023-04-25T08:50:39;99881.99;;;21.39;33.99
72024;BME280;59889;50.700;5.440;2023-04-25T08:53:04;99885.47;;;21.42;33.97
72024;BME280;59889;50.700;5.440;2023-04-25T08:55:29;99886.23;;;21.33;34.02
72024;BME280;59889;50.700;5.440;2023-04-25T08:57:54;99893.01;;;21.30;34.05
72024;BME280;59889;50.700;5.440;2023-04-25T09:00:18;99897.16;;;21.24;34.12
72024;BME280;59889;50.700;5.440;2023-04-25T09:02:43;99900.98;;;21.32;34.00
72024;BME280;59889;50.700;5.440;2023-04-25T09:05:10;99908.82;;;21.21;34.12
72024;BME280;59889;50.700;5.440;2023-04-25T09:07:33;99917.00;;;21.27;34.00
72024;BME280;59889;50.700;5.440;2023-04-25T09:09:59;99922.90;;;21.26;34.00
72024;BME280;59889;50.700;5.440;2023-04-25T09:12:24;99921.00;;;21.30;33.90
72024;BME280;59889;50.700;5.440;2023-04-25T09:15:03;99924.00;;;21.45;34.02
72024;BME280;59889;50.700;5.440;2023-04-25T09:17:14;99923.80;;;21.22;34.00
72024;BME280;59889;50.700;5.440;2023-04-25T09:19:39;99927.26;;;21.26;33.94
72024;BME280;59889;50.700;5.440;2023-04-25T09:22:04;99930.31;;;21.28;33.94
72024;BME280;59889;50.700;5.440;2023-04-25T09:24:32;99933.54;;;21.49;33.91
72024;BME280;59889;50.700;5.440;2023-04-25T09:26:54;99935.93;;;21.55;33.84
72024;BME280;59889;50.700;5.440;2023-04-25T09:29:28;99939.20;;;21.18;33.96
72024;BME280;59889;50.700;5.440;2023-04-25T09:31:44;99945.01;;;20.82;34.08
72024;BME280;59889;50.700;5.440;2023-04-25T09:34:09;99947.30;;;21.23;33.87
72024;BME280;59889;50.700;5.440;2023-04-25T09:36:34;99951.06;;;21.29;33.74
72024;BME280;59889;50.700;5.440;2023-04-25T09:39:00;99955.96;;;21.23;33.77
72024;BME280;59889;50.700;5.440;2023-04-25T09:41:25;99958.58;;;21.05;33.95
72024;BME280;59889;50.700;5.440;2023-04-25T09:43:50;99961.43;;;21.14;33.82
72024;BME280;59889;50.700;5.440;2023-04-25T09:46:15;99958.29;;;21.57;33.85
72024;BME280;59889;50.700;5.440;2023-04-25T09:48:40;99956.17;;;21.23;33.65
72024;BME280;59889;50.700;5.440;2023-04-25T09:51:06;99956.52;;;21.19;33.64
72024;BME280;59889;50.700;5.440;2023-04-25T09:53:30;99957.68;;;21.03;33.73
72024;BME280;59889;50.700;5.440;2023-04-25T09:55:55;99959.80;;;21.17;33.58
72024;BME280;59889;50.700;5.440;2023-04-25T09:58:20;99959.65;;;21.23;33.53
72024;BME280;59889;50.700;5.440;2023-04-25T10:00:45;99960.20;;;21.27;33.45
72024;BME280;59889;50.700;5.440;2023-04-25T10:03:11;99956.32;;;21.13;33.63
72024;BME280;59889;50.700;5.440;2023-04-25T10:05:37;99956.48;;;21.09;33.61
72024;BME280;59889;50.700;5.440;2023-04-25T10:08:02;99964.76;;;21.13;33.52
72024;BME280;59889;50.700;5.440;2023-04-25T10:10:27;99968.66;;;21.47;33.41
72024;BME280;59889;50.700;5.440;2023-04-25T10:12:51;99974.89;;;21.27;33.36
72024;BME280;59889;50.700;5.440;2023-04-25T10:15:16;99973.40;;;21.28;33.31
72024;BME280;59889;50.700;5.440;2023-04-25T10:17:41;99978.49;;;21.44;33.36
72024;BME280;59889;50.700;5.440;2023-04-25T10:20:07;99980.83;;;21.19;33.35
72024;BME280;59889;50.700;5.440;2023-04-25T10:22:36;99983.65;;;21.24;33.23
72024;BME280;59889;50.700;5.440;2023-04-25T10:24:57;99982.72;;;21.33;33.11
72024;BME280;59889;50.700;5.440;2023-04-25T10:27:22;99979.20;;;21.47;33.19
72024;BME280;59889;50.700;5.440;2023-04-25T10:32:12;99978.98;;;21.17;33.24
72024;BME280;59889;50.700;5.440;2023-04-25T10:34:39;99982.20;;;21.20;33.15
72024;BME280;59889;50.700;5.440;2023-04-25T10:37:02;99979.29;;;21.39;32.93
72024;BME280;59889;50.700;5.440;2023-04-25T10:39:27;99974.94;;;21.28;33.05
72024;BME280;59889;50.700;5.440;2023-04-25T10:41:53;99974.54;;;21.22;33.11
72024;BME280;59889;50.700;5.440;2023-04-25T10:44:17;99980.02;;;21.31;32.97
72024;BME280;59889;50.700;5.440;2023-04-25T10:46:44;99977.29;;;21.15;33.15
72024;BME280;59889;50.700;5.440;2023-04-25T10:49:08;99979.39;;;21.07;32.96
72024;BME280;59889;50.700;5.440;2023-04-25T10:51:33;99972.54;;;21.48;33.03
72024;BME280;59889;50.700;5.440;2023-04-25T10:53:59;99972.92;;;21.26;32.98
72024;BME280;59889;50.700;5.440;2023-04-25T10:56:24;99972.00;;;21.25;33.01
72024;BME280;59889;50.700;5.440;2023-04-25T10:58:48;99972.21;;;21.36;32.88
72024;BME280;59889;50.700;5.440;2023-04-25T11:01:13;99971.34;;;21.27;32.95
72024;BME280;59889;50.700;5.440;2023-04-25T11:03:40;99972.13;;;21.38;32.81
72024;BME280;59889;50.700;5.440;2023-04-25T11:06:03;99971.57;;;21.36;32.82
72024;BME280;59889;50.700;5.440;2023-04-25T11:08:34;99971.92;;;21.57;32.84
72024;BME280;59889;50.700;5.440;2023-04-25T11:10:53;99973.96;;;21.44;32.71
72024;BME280;59889;50.700;5.440;2023-04-25T11:13:20;99977.81;;;21.26;32.89
72024;BME280;59889;50.700;5.440;2023-04-25T11:15:43;99977.84;;;21.22;32.99
72024;BME280;59889;50.700;5.440;2023-04-25T11:18:08;99986.73;;;21.48;32.94
72024;BME280;59889;50.700;5.440;2023-04-25T11:20:33;99990.71;;;21.24;32.93
72024;BME280;59889;50.700;5.440;2023-04-25T11:22:58;99990.48;;;21.18;32.95
72024;BME280;59889;50.700;5.440;2023-04-25T11:25:24;99988.93;;;21.45;32.85
72024;BME280;59889;50.700;5.440;2023-04-25T11:27:50;99991.13;;;21.20;32.86
72024;BME280;59889;50.700;5.440;2023-04-25T11:30:14;99995.57;;;21.38;32.90
72024;BME280;59889;50.700;5.440;2023-04-25T11:32:40;99996.05;;;21.45;32.77
72024;BME280;59889;50.700;5.440;2023-04-25T11:35:05;100000.38;;;21.19;32.77
72024;BME280;59889;50.700;5.440;2023-04-25T11:37:29;100007.54;;;20.99;32.69
72024;BME280;59889;50.700;5.440;2023-04-25T11:39:54;100010.44;;;21.50;32.62
72024;BME280;59889;50.700;5.440;2023-04-25T11:42:19;100012.27;;;21.14;32.75
72024;BME280;59889;50.700;5.440;2023-04-25T11:44:44;100010.46;;;21.14;32.75
72024;BME280;59889;50.700;5.440;2023-04-25T11:47:09;100009.96;;;21.12;32.74
72024;BME280;59889;50.700;5.440;2023-04-25T11:49:35;100007.04;;;21.28;32.52
72024;BME280;59889;50.700;5.440;2023-04-25T11:51:59;100007.88;;;21.17;32.61
72024;BME280;59889;50.700;5.440;2023-04-25T11:54:24;100008.47;;;21.46;32.54
72024;BME280;59889;50.700;5.440;2023-04-25T11:56:50;100005.09;;;21.39;32.58
72024;BME280;59889;50.700;5.440;2023-04-25T11:59:14;100005.00;;;21.07;32.65
72024;BME280;59889;50.700;5.440;2023-04-25T12:01:40;100005.79;;;21.28;32.66
72024;BME280;59889;50.700;5.440;2023-04-25T12:04:11;100006.27;;;21.10;32.58
72024;BME280;59889;50.700;5.440;2023-04-25T12:06:30;100006.73;;;21.17;32.49
72024;BME280;59889;50.700;5.440;2023-04-25T12:09:02;100002.99;;;21.51;32.37
72024;BME280;59889;50.700;5.440;2023-04-25T12:11:21;100004.05;;;21.42;32.43
72024;BME280;59889;50.700;5.440;2023-04-25T12:13:45;100007.53;;;21.14;32.50
72024;BME280;59889;50.700;5.440;2023-04-25T12:16:10;100004.81;;;21.21;32.44
72024;BME280;59889;50.700;5.440;2023-04-25T12:18:35;100009.24;;;21.29;32.38
72024;BME280;59889;50.700;5.440;2023-04-25T12:21:00;100006.08;;;21.30;32.33
72024;BME280;59889;50.700;5.440;2023-04-25T12:23:26;100008.03;;;21.13;32.51
72024;BME280;59889;50.700;5.440;2023-04-25T12:25:50;100013.97;;;21.28;32.37
72024;BME280;59889;50.700;5.440;2023-04-25T12:28:17;100013.59;;;21.48;32.39
72024;BME280;59889;50.700;5.440;2023-04-25T12:30:54;100010.14;;;21.23;32.39
72024;BME280;59889;50.700;5.440;2023-04-25T12:33:05;100005.08;;;21.32;32.29
72024;BME280;59889;50.700;5.440;2023-04-25T12:35:32;100004.36;;;21.22;32.16
72024;BME280;59889;50.700;5.440;2023-04-25T12:37:55;100002.05;;;21.29;32.37
72024;BME280;59889;50.700;5.440;2023-04-25T12:40:21;100003.10;;;21.38;32.27
72024;BME280;59889;50.700;5.440;2023-04-25T12:42:46;100006.16;;;21.33;32.36
72024;BME280;59889;50.700;5.440;2023-04-25T12:45:11;100007.17;;;21.25;32.48
72024;BME280;59889;50.700;5.440;2023-04-25T12:47:36;100009.56;;;21.25;32.47
72024;BME280;59889;50.700;5.440;2023-04-25T12:50:01;100012.98;;;21.28;32.42